Mar del Plata, Argentina
Current Conditions -  °F | °C
As of 8:00 PM on Tuesday 27 Jan 2015 (Local Time) from SAZM Reporting Station
Broken Clouds Broken Clouds  
Wind Chill: 73°   Ceiling: 20000
Heat Index: 73°   Visibility: 6mi
Dew Point: 68°   Wind: 5mph
Humidity: 83%   Direction: 200°SSW
Pressure: 29.71"   Gusts: NA
Location:  38°S, 57.58°W
Report Text: SAZM 272300Z 20004KT 9999 FEW030 SCT050BKN200 23/20 Q1006
Loading
Personal Weather Stations






























Interactive Weather Map New forecast layout! Learn more

10-Day Weather Forecast

Advertisements
Track Severe Weather on mobile